Wilmington, DE (19806)

9:13 AM EDT on October 23, 2014 (GMT -0400)
Woodbrook | Change Station
CLOSE
Current Station
Personal Weather Station
Location: Wilmington, DE
Elevation: 325 ft
Nearby Weather Stations

Elev 325 ft 39.79 °N, 75.56 °W | Updated 5 minutes ago

Light Rain
Light Rain
48.9 °F
Feels Like 47 °F
N
4.7
Wind Variable Wind from SW

Today
High -- | Low -- °F
--% Chance of Precip.
Yesterday
High -- | Low -- °F
Precip. -- in
7:20 AM 6:11 PM
Waning Crescent, 0% visible
Pressure 29.81 in
Visibility 10.0 miles
Clouds Overcast 5000 ft
Windchill 47 °F
Dew Point 48 °F
Humidity 97%
Rainfall 0.05 in
Snow Depth Not available.
UV 0 out of 12
Pollen .20 out of 12
Air Quality Not available.
Flu Activity Sporadic
METAR KILG 231251Z 33015KT 10SM -RA OVC050 11/08 A2980 RMK AO2 RAB1159 SLP092 P0001 T01060078

More Conditions Fewer Conditions

Pressure 29.81 in
Visibility 10.0 miles
Clouds Overcast 5000 ft
Windchill 47 °F
Dew Point 48 °F
Humidity 97%
Rainfall 0.05 in
Snow Depth Not available.
UV 0 out of 12
Pollen .20 out of 12
Air Quality Not available.
Flu Activity Sporadic
METAR KILG 231251Z 33015KT 10SM -RA OVC050 11/08 A2980 RMK AO2 RAB1159 SLP092 P0001 T01060078

More Conditions Fewer Conditions

Nowcast | as of 8:51 am EDT on October 23, 2014

Areas of light rain will continue across portions of central to southern New Jersey, eastern Pennsylvania, and northern Delaware through this morning. Up to a few hundredths of an inch of rain can be expected, along with northwest winds from 10 to 20 mph, gusting at times to 25 mph. Temperatures will hold mostly in the upper 40s to lower 50s.

×

10-Day Weather Forecast

Almanac

Astronomy

Oct. 23, 2014 Rise Set
Actual Time 7:20 AM EDT 6:11 PM EDT
Civil Twilight 6:53 AM EDT 6:39 PM EDT
Nautical Twilight 6:21 AM EDT 7:10 PM EDT
Astronomical Twilight 5:50 AM EDT 7:41 PM EDT
Moon 6:58 AM EDT 6:11 PM EDT
Length of Visible Light 11h 45m
Length of Day
10h 50m
Tomorrow will be 2m 25s shorter.
Waning Crescent, 0% of the Moon is Illuminated
Today
Waning Crescent
Oct 23
New
Oct 30
First Quarter
Nov 6
Full
Nov 14
Last Quarter

Today's Extremes

State Highs State Lows

Community

WunderPhotos

Upload Photos

1,764,231 photos uploaded!

Nearby

Snow Depth

Station Depth Elevation
No new snow has been reported.

Earthquake Activity

City Distance Mag. Time & Date
No recent earthquake activity has been reported nearby.
Minimum magnitude displayed is 2.5.

Coastal Water Temperatures

Place Temperature
Cape May, NJ 64.9 °F
Reedy Point, DE 62.1 °F
Delaware City, DE 61.0 °F
Marcus Hook, PA 63.0 °F

Nearby Weather Stations